LiveATC.Net - Listen to live air traffic control over the Internet!


ICAO: KEST  IATA: EST   Airport: Estherville Municipal Airport
City: Estherville   State/Province: Iowa
Country: United States   Continent: North America
KEST METAR Weather: KEST 181052Z AUTO 27005KT 10SM OVC070 03/M03 A2998 RMK AO2 SLP158 T00331033
KEST Flight Activity (FlightAware)
KEST Airport Info   (iFlightPlanner)
KEST VFR Sectional Chart   (iFlightPlanner) 
KEST IFR Low Chart   (iFlightPlanner) 

KEST CTAF
Feed Status: UP   Listeners: 0
Listen in your browser - HTML5 player (in browser, HTML5)
Click here to listen with your own player (launches your MP3 player)
Archive Access: KEST CTAF
FacilityFrequency
Estherville CTAF122.800

NOTICE

Unauthorized use prohibited. See LiveATC.net Terms of Service


Airport/ARTCC Code
Frequency Search
(e.g., 124.400, 128.75)
Site-wide search
 


Browse Feeds
Top 50 Feeds
HF Oceanic Feeds
Coverage Map
Bad Weather Areas

LiveATC FAQ
Offer LiveATC feed
Contact LiveATC.net
Press Inquiries

LiveATC on iPhone
LiveATC on Android

Windows Phone
Windows 8/10

LiveATC Mobile
(Mobile browser)

ATC Audio Archives
Interesting Recordings

LiveATC Forums


Home Page
About LiveATC.net
Make a Donation
Terms of Use
Privacy Policy

Canadian Air Freqs

AIRMETs/SIGMETs

FAA Airport Status
Nat'l Airspace Status
Arrival Demand Charts


Server Software By:
Icecast.org
Liquidsoap